createdAt,value
2023-04-16T00:05:01.283Z,16.08
2023-04-16T00:07:45.978Z,14.13
2023-04-16T00:10:31.049Z,14.18
2023-04-16T00:13:15.849Z,14.98
2023-04-16T00:16:00.986Z,13.57
2023-04-16T00:18:46.126Z,14.23
2023-04-16T00:21:31.120Z,14.60
2023-04-16T00:24:15.976Z,12.85
2023-04-16T00:27:01.063Z,15.68
2023-04-16T00:29:45.899Z,13.80
2023-04-16T00:32:31.154Z,13.80
2023-04-16T00:35:16.108Z,14.70
2023-04-16T00:38:00.999Z,13.20
2023-04-16T00:40:46.035Z,15.75
2023-04-16T00:43:31.158Z,12.93
2023-04-16T00:46:18.102Z,13.38
2023-04-16T00:49:03.748Z,13.90
2023-04-16T00:51:48.731Z,14.23
2023-04-16T00:54:33.872Z,17.73
2023-04-16T00:57:20.531Z,14.80
2023-04-16T01:00:06.350Z,15.95
2023-04-16T01:02:51.965Z,15.57
2023-04-16T01:05:36.981Z,15.30
2023-04-16T01:08:22.321Z,15.63
2023-04-16T01:11:07.064Z,16.25
2023-04-16T01:13:52.104Z,16.00
2023-04-16T01:16:37.078Z,17.63
2023-04-16T01:19:21.907Z,17.83
2023-04-16T01:22:06.899Z,16.90
2023-04-16T01:24:52.371Z,18.48
2023-04-16T01:27:37.250Z,14.95
2023-04-16T01:30:21.701Z,14.32
2023-04-16T01:33:17.907Z,16.85
2023-04-16T01:36:02.607Z,18.58
2023-04-16T01:38:47.539Z,14.60
2023-04-16T01:41:32.236Z,16.23
2023-04-16T01:44:17.377Z,19.40
2023-04-16T01:47:02.422Z,18.40
2023-04-16T01:49:47.662Z,14.63
2023-04-16T01:52:32.770Z,19.90
2023-04-16T01:55:17.726Z,15.68
2023-04-16T01:58:02.948Z,16.50
2023-04-16T02:00:51.903Z,17.17
2023-04-16T02:03:37.405Z,16.40
2023-04-16T02:06:22.428Z,19.10
2023-04-16T02:09:07.514Z,16.38
2023-04-16T02:11:52.710Z,19.75
2023-04-16T02:14:37.553Z,19.42
2023-04-16T02:17:22.514Z,18.02
2023-04-16T02:20:10.278Z,17.92
2023-04-16T02:23:09.705Z,21.33
2023-04-16T02:25:54.345Z,20.90
2023-04-16T02:28:39.149Z,19.30
2023-04-16T02:31:27.865Z,18.17
2023-04-16T02:34:14.385Z,22.05
2023-04-16T02:36:59.780Z,20.73
2023-04-16T02:39:45.763Z,19.75
2023-04-16T02:42:31.854Z,20.48
2023-04-16T02:45:17.042Z,21.60
2023-04-16T02:48:02.008Z,24.20
2023-04-16T02:50:46.785Z,22.75
2023-04-16T02:56:15.778Z,19.73
2023-04-16T02:59:00.690Z,25.52
2023-04-16T03:01:45.916Z,26.27
2023-04-16T03:04:32.439Z,26.45
2023-04-16T03:07:17.773Z,24.45
2023-04-16T03:10:02.225Z,22.63
2023-04-16T03:12:47.355Z,29.73
2023-04-16T03:15:32.371Z,24.73
2023-04-16T03:18:17.257Z,29.17
2023-04-16T03:21:02.185Z,26.65
2023-04-16T03:23:47.257Z,26.58
2023-04-16T03:26:32.102Z,27.80
2023-04-16T03:29:16.658Z,30.13
2023-04-16T03:32:02.205Z,31.67
2023-04-16T03:34:47.098Z,35.45
2023-04-16T03:37:32.325Z,28.75
2023-04-16T03:40:17.184Z,26.92
2023-04-16T03:43:02.193Z,30.45
2023-04-16T03:45:47.314Z,36.17
2023-04-16T03:48:32.021Z,35.70
2023-04-16T03:51:16.928Z,40.38
2023-04-16T03:54:01.894Z,38.40
2023-04-16T03:56:47.463Z,38.47
2023-04-16T03:59:32.309Z,35.38
2023-04-16T04:02:17.815Z,40.00
2023-04-16T04:05:02.963Z,35.58
2023-04-16T04:07:47.910Z,35.20
2023-04-16T04:10:33.543Z,31.90
2023-04-16T04:13:19.292Z,31.00
2023-04-16T04:16:05.143Z,28.30
2023-04-16T04:18:50.290Z,32.03
2023-04-16T04:21:35.189Z,28.73
2023-04-16T04:24:21.796Z,32.90
2023-04-16T04:27:06.714Z,27.80
2023-04-16T04:32:35.834Z,26.48
2023-04-16T04:35:20.968Z,25.77
2023-04-16T04:38:06.240Z,27.20
2023-04-16T04:40:52.246Z,24.75
2023-04-16T04:43:38.867Z,25.63
2023-04-16T04:46:24.528Z,22.65
2023-04-16T04:49:09.974Z,23.10
2023-04-16T04:51:55.468Z,25.92
2023-04-16T04:54:41.155Z,21.65
2023-04-16T04:57:26.320Z,21.92
2023-04-16T05:00:12.725Z,21.80
2023-04-16T05:03:05.625Z,19.90
2023-04-16T05:05:50.715Z,23.50
2023-04-16T05:08:35.825Z,22.08
2023-04-16T05:11:20.828Z,20.70
2023-04-16T05:14:05.454Z,22.65
2023-04-16T05:19:34.997Z,26.88
2023-04-16T05:22:20.154Z,21.17
2023-04-16T05:25:05.151Z,22.45
2023-04-16T05:27:49.700Z,21.63
2023-04-16T05:30:34.891Z,21.88
2023-04-16T05:33:20.337Z,21.45
2023-04-16T05:36:05.345Z,19.25
2023-04-16T05:38:50.318Z,21.40
2023-04-16T05:41:35.390Z,17.40
2023-04-16T05:44:20.330Z,19.67
2023-04-16T05:47:06.723Z,17.45
2023-04-16T05:49:51.274Z,18.88
2023-04-16T05:52:36.041Z,16.23
2023-04-16T05:55:20.930Z,19.15
2023-04-16T05:58:05.543Z,17.08
2023-04-16T06:00:50.763Z,22.60
2023-04-16T06:03:35.688Z,20.65
2023-04-16T06:06:20.631Z,22.67
2023-04-16T06:09:05.531Z,23.75
2023-04-16T06:11:50.490Z,18.35
2023-04-16T06:14:35.639Z,23.42
2023-04-16T06:17:20.778Z,22.85
2023-04-16T06:20:06.585Z,23.50
2023-04-16T06:22:51.492Z,24.85
2023-04-16T06:25:36.480Z,24.42
2023-04-16T06:28:21.621Z,24.98
2023-04-16T06:31:06.515Z,25.58
2023-04-16T06:33:51.506Z,24.00
2023-04-16T06:36:37.036Z,23.83
2023-04-16T06:39:21.582Z,26.58
2023-04-16T06:42:06.928Z,23.08
2023-04-16T06:44:51.628Z,23.00
2023-04-16T06:47:36.337Z,23.67
2023-04-16T06:50:22.774Z,26.13
2023-04-16T06:53:08.087Z,24.02
2023-04-16T06:55:52.839Z,26.42
2023-04-16T06:58:37.738Z,23.17
2023-04-16T07:01:22.567Z,20.73
2023-04-16T07:04:07.366Z,24.55
2023-04-16T07:06:52.540Z,23.02
2023-04-16T07:09:37.439Z,18.55
2023-04-16T07:12:22.945Z,21.60
2023-04-16T07:15:08.792Z,22.52
2023-04-16T07:17:53.605Z,22.00
2023-04-16T07:20:38.637Z,19.38
2023-04-16T07:23:23.685Z,16.25
2023-04-16T07:26:09.065Z,19.02
2023-04-16T07:28:53.612Z,15.68
2023-04-16T07:31:38.761Z,17.92
2023-04-16T07:34:23.545Z,19.45
2023-04-16T07:37:09.071Z,18.67
2023-04-16T07:39:57.369Z,19.08
2023-04-16T07:42:42.755Z,22.30
2023-04-16T07:45:27.573Z,21.10
2023-04-16T07:48:12.520Z,22.42
2023-04-16T07:50:57.698Z,22.45
2023-04-16T07:53:42.937Z,23.63
2023-04-16T07:56:27.396Z,20.85
2023-04-16T07:59:21.699Z,22.40
2023-04-16T08:02:13.820Z,21.17
2023-04-16T08:04:59.969Z,24.02
2023-04-16T08:07:44.428Z,26.75
2023-04-16T08:10:29.097Z,28.17
2023-04-16T08:13:14.282Z,27.42
2023-04-16T08:15:59.301Z,27.90
2023-04-16T08:18:44.244Z,33.58
2023-04-16T08:21:30.153Z,28.48
2023-04-16T08:24:14.955Z,29.38
2023-04-16T08:27:08.142Z,30.10
2023-04-16T08:30:02.570Z,28.95
2023-04-16T08:32:49.942Z,32.60
2023-04-16T08:35:35.279Z,31.13
2023-04-16T08:38:20.151Z,36.17
2023-04-16T08:41:08.667Z,29.75
2023-04-16T08:43:56.215Z,35.38
2023-04-16T08:46:43.453Z,32.53
2023-04-16T08:49:29.380Z,29.88
2023-04-16T08:52:19.267Z,30.67
2023-04-16T08:55:09.457Z,30.25
2023-04-16T08:57:57.902Z,31.92
2023-04-16T09:00:43.326Z,30.75
2023-04-16T09:03:31.521Z,28.13
2023-04-16T09:06:17.698Z,28.83
2023-04-16T09:09:04.199Z,28.17
2023-04-16T09:11:53.053Z,29.52
2023-04-16T09:14:41.261Z,27.35
2023-04-16T09:17:26.569Z,25.80
2023-04-16T09:20:12.202Z,27.40
2023-04-16T09:22:56.976Z,25.10
2023-04-16T09:25:42.103Z,26.00
2023-04-16T09:28:44.993Z,25.73
2023-04-16T09:31:30.137Z,22.65
2023-04-16T09:34:15.204Z,22.83
2023-04-16T09:37:17.098Z,22.73
2023-04-16T09:40:04.330Z,22.80
2023-04-16T09:42:49.925Z,25.40
2023-04-16T09:45:54.896Z,22.88
2023-04-16T09:48:40.062Z,23.35
2023-04-16T09:51:26.256Z,25.30
2023-04-16T09:54:11.149Z,23.20
2023-04-16T09:56:56.642Z,23.35
2023-04-16T09:59:41.399Z,25.10
2023-04-16T10:02:30.572Z,20.55
2023-04-16T10:05:18.015Z,21.42
2023-04-16T10:08:10.868Z,21.92
2023-04-16T10:10:56.088Z,21.55
2023-04-16T10:13:40.723Z,22.42
2023-04-16T10:16:26.097Z,21.63
2023-04-16T10:19:11.171Z,21.00
2023-04-16T10:21:57.750Z,20.65
2023-04-16T10:24:43.324Z,20.35
2023-04-16T10:27:29.066Z,18.60
2023-04-16T10:30:15.315Z,24.17
2023-04-16T10:33:03.571Z,18.73
2023-04-16T10:35:57.927Z,20.92
2023-04-16T10:38:52.793Z,17.02
2023-04-16T10:41:38.167Z,15.63
2023-04-16T10:44:24.385Z,16.00
2023-04-16T10:47:13.576Z,13.18
2023-04-16T10:49:58.399Z,14.65
2023-04-16T10:52:43.386Z,13.55
2023-04-16T10:55:28.344Z,12.70
2023-04-16T10:58:29.712Z,12.20
2023-04-16T11:01:15.883Z,10.70
2023-04-16T11:04:21.192Z,10.30
2023-04-16T11:07:15.765Z,11.80
2023-04-16T11:10:04.519Z,11.20
2023-04-16T11:12:50.078Z,9.70
2023-04-16T11:15:34.811Z,11.77
2023-04-16T11:18:19.979Z,11.15
2023-04-16T11:21:08.604Z,10.00
2023-04-16T11:23:53.509Z,12.18
2023-04-16T11:26:38.133Z,12.40
2023-04-16T11:29:23.345Z,11.52
2023-04-16T11:32:08.227Z,10.48
2023-04-16T11:34:53.438Z,11.77
2023-04-16T11:37:38.690Z,10.50
2023-04-16T11:40:23.497Z,9.93
2023-04-16T11:43:15.957Z,13.15
2023-04-16T11:46:16.254Z,11.02
2023-04-16T11:49:09.554Z,12.50
2023-04-16T11:51:55.447Z,12.88
2023-04-16T11:54:40.456Z,11.60
2023-04-16T11:57:29.847Z,11.20
2023-04-16T12:00:14.739Z,10.50
2023-04-16T12:02:59.487Z,11.13
2023-04-16T12:05:44.431Z,11.27
2023-04-16T12:08:32.754Z,13.90
2023-04-16T12:11:17.889Z,13.23
2023-04-16T12:14:10.880Z,11.75
2023-04-16T12:16:56.510Z,15.73
2023-04-16T12:19:51.913Z,14.93
2023-04-16T12:22:38.609Z,15.40
2023-04-16T12:25:24.115Z,13.38
2023-04-16T12:28:08.764Z,14.30
2023-04-16T12:30:53.913Z,11.75
2023-04-16T12:33:38.997Z,13.35
2023-04-16T12:36:24.042Z,17.98
2023-04-16T12:39:10.583Z,14.57
2023-04-16T12:41:55.571Z,16.70
2023-04-16T12:44:40.470Z,15.48
2023-04-16T12:47:25.465Z,14.10
2023-04-16T12:50:10.511Z,11.68
2023-04-16T12:52:55.977Z,14.63
2023-04-16T12:55:41.124Z,15.50
2023-04-16T12:58:26.380Z,13.00
2023-04-16T13:01:11.373Z,14.80
2023-04-16T13:03:56.421Z,14.23
2023-04-16T13:06:41.275Z,16.75
2023-04-16T13:09:26.579Z,15.88
2023-04-16T13:12:11.675Z,14.77
2023-04-16T13:14:56.479Z,16.35
2023-04-16T13:17:41.522Z,16.92
2023-04-16T13:20:26.541Z,15.70
2023-04-16T13:23:11.795Z,18.23
2023-04-16T13:25:56.580Z,14.35
2023-04-16T13:28:41.562Z,18.40
2023-04-16T13:31:26.731Z,19.20
2023-04-16T13:34:11.636Z,17.83
2023-04-16T13:36:56.633Z,18.90
2023-04-16T13:39:41.615Z,19.83
2023-04-16T13:42:27.805Z,17.55
2023-04-16T13:45:12.721Z,17.05
2023-04-16T13:47:57.652Z,15.32
2023-04-16T13:50:42.541Z,18.23
2023-04-16T13:53:27.423Z,16.90
2023-04-16T13:56:12.108Z,21.70
2023-04-16T13:58:57.099Z,16.70
2023-04-16T14:01:42.248Z,17.42
2023-04-16T14:04:27.132Z,21.67
2023-04-16T14:07:12.296Z,22.10
2023-04-16T14:09:57.135Z,22.50
2023-04-16T14:12:43.324Z,25.65
2023-04-16T14:15:29.325Z,22.15
2023-04-16T14:18:14.199Z,23.83
2023-04-16T14:21:01.523Z,19.25
2023-04-16T14:23:46.384Z,17.38
2023-04-16T14:26:31.388Z,19.73
2023-04-16T14:29:16.127Z,19.02
2023-04-16T14:32:01.158Z,21.88
2023-04-16T14:34:46.228Z,24.30
2023-04-16T14:37:31.198Z,26.20
2023-04-16T14:40:16.320Z,17.55
2023-04-16T14:43:00.878Z,19.38
2023-04-16T14:45:46.217Z,17.35
2023-04-16T14:48:31.396Z,20.27
2023-04-16T14:51:15.961Z,16.95
2023-04-16T14:54:00.923Z,16.98
2023-04-16T14:56:46.820Z,19.20
2023-04-16T14:59:31.869Z,17.08
2023-04-16T15:02:17.027Z,17.63
2023-04-16T15:05:01.991Z,14.27
2023-04-16T15:07:46.986Z,18.23
2023-04-16T15:10:32.292Z,17.65
2023-04-16T15:13:17.581Z,17.25
2023-04-16T15:16:04.267Z,18.70
2023-04-16T15:18:50.322Z,17.58
2023-04-16T15:21:35.281Z,20.65
2023-04-16T15:24:20.543Z,19.77
2023-04-16T15:27:06.318Z,18.73
2023-04-16T15:29:53.262Z,21.25
2023-04-16T15:32:37.828Z,22.85
2023-04-16T15:35:22.382Z,20.58
2023-04-16T15:38:07.713Z,27.65
2023-04-16T15:40:52.425Z,30.08
2023-04-16T15:43:38.353Z,25.55
2023-04-16T15:46:23.633Z,28.48
2023-04-16T15:49:08.481Z,23.48
2023-04-16T15:51:53.512Z,24.33
2023-04-16T15:54:38.346Z,25.98
2023-04-16T15:57:23.186Z,27.08
2023-04-16T16:00:16.473Z,27.63
2023-04-16T16:03:02.166Z,29.63
2023-04-16T16:05:47.805Z,26.23
2023-04-16T16:08:37.579Z,27.58
2023-04-16T16:11:22.587Z,20.85
2023-04-16T16:14:07.714Z,23.73
2023-04-16T16:16:52.676Z,24.08
2023-04-16T16:22:23.063Z,30.65
2023-04-16T16:25:09.514Z,30.33
2023-04-16T16:27:54.311Z,30.95
2023-04-16T16:30:40.105Z,31.23
2023-04-16T16:33:25.234Z,31.50
2023-04-16T16:36:10.868Z,33.95
2023-04-16T16:38:56.361Z,30.33
2023-04-16T16:41:41.519Z,36.15
2023-04-16T16:44:26.912Z,34.00
2023-04-16T16:47:12.166Z,33.88
2023-04-16T16:49:57.502Z,34.10
2023-04-16T16:52:42.409Z,33.50
2023-04-16T16:55:27.337Z,39.53
2023-04-16T16:58:12.306Z,35.20
2023-04-16T17:00:58.158Z,37.20
2023-04-16T17:03:43.226Z,42.05
2023-04-16T17:06:28.511Z,40.55
2023-04-16T17:09:13.377Z,41.25
2023-04-16T17:11:58.483Z,44.80
2023-04-16T17:14:43.632Z,39.55
2023-04-16T17:17:28.700Z,50.15
2023-04-16T17:20:13.716Z,47.50
2023-04-16T17:22:58.867Z,44.38
2023-04-16T17:25:43.664Z,47.22
2023-04-16T17:28:28.637Z,45.00
2023-04-16T17:31:14.547Z,50.42
2023-04-16T17:33:59.290Z,43.13
2023-04-16T17:36:46.553Z,46.47
2023-04-16T17:39:31.299Z,45.80
2023-04-16T17:42:16.858Z,46.95
2023-04-16T17:45:02.460Z,50.13
2023-04-16T17:47:47.274Z,44.17
2023-04-16T17:50:32.200Z,51.85
2023-04-16T17:53:17.052Z,52.78
2023-04-16T17:56:02.158Z,53.45
2023-04-16T17:58:46.794Z,56.97
2023-04-16T18:01:31.791Z,55.00
2023-04-16T18:04:17.434Z,51.88
2023-04-16T18:07:02.890Z,55.45
2023-04-16T18:09:47.719Z,48.08
2023-04-16T18:15:16.819Z,55.30
2023-04-16T18:18:01.679Z,50.53
2023-04-16T18:20:46.835Z,49.35
2023-04-16T18:23:31.779Z,56.45
2023-04-16T18:26:20.439Z,52.70
2023-04-16T18:29:06.894Z,49.72
2023-04-16T18:31:51.514Z,38.35
2023-04-16T18:34:36.350Z,48.25
2023-04-16T18:37:21.195Z,43.92
2023-04-16T18:40:06.885Z,38.88
2023-04-16T18:42:51.667Z,40.22
2023-04-16T18:45:36.602Z,41.22
2023-04-16T18:48:21.745Z,46.55
2023-04-16T18:51:07.427Z,50.33
2023-04-16T18:53:52.203Z,49.38
2023-04-16T18:56:37.058Z,47.40
2023-04-16T18:59:21.977Z,46.97
2023-04-16T19:02:07.015Z,57.67
2023-04-16T19:04:52.190Z,54.70
2023-04-16T19:07:37.900Z,48.75
2023-04-16T19:10:22.387Z,49.33
2023-04-16T19:13:07.407Z,48.45
2023-04-16T19:15:57.812Z,47.20
2023-04-16T19:18:42.687Z,46.83
2023-04-16T19:21:27.642Z,52.20
2023-04-16T19:24:12.667Z,44.22
2023-04-16T19:26:57.878Z,50.15
2023-04-16T19:29:42.923Z,48.85
2023-04-16T19:32:27.817Z,47.60
2023-04-16T19:35:12.978Z,48.63
2023-04-16T19:37:57.981Z,46.53
2023-04-16T19:40:46.284Z,54.45
2023-04-16T19:43:31.356Z,44.75
2023-04-16T19:46:17.155Z,43.03
2023-04-16T19:49:02.925Z,51.55
2023-04-16T19:51:48.070Z,46.47
2023-04-16T19:54:34.166Z,48.72
2023-04-16T19:57:18.843Z,46.92
2023-04-16T20:00:07.360Z,50.97
2023-04-16T20:02:52.861Z,49.08
2023-04-16T20:05:37.795Z,48.58
2023-04-16T20:08:22.680Z,50.30
2023-04-16T20:13:53.722Z,54.65
2023-04-16T20:16:38.711Z,55.67
2023-04-16T20:19:25.525Z,56.22
2023-04-16T20:22:10.493Z,56.55
2023-04-16T20:24:55.711Z,52.63
2023-04-16T20:27:40.632Z,59.42
2023-04-16T20:30:28.645Z,54.88
2023-04-16T20:33:13.372Z,60.92
2023-04-16T20:35:58.521Z,56.35
2023-04-16T20:38:43.051Z,54.17
2023-04-16T20:41:29.368Z,56.75
2023-04-16T20:44:18.263Z,52.28
2023-04-16T20:47:03.482Z,51.42
2023-04-16T20:49:48.759Z,58.67
2023-04-16T20:52:33.744Z,56.88
2023-04-16T20:55:18.804Z,60.63
2023-04-16T20:58:03.608Z,64.90
2023-04-16T21:00:52.846Z,64.45
2023-04-16T21:03:37.896Z,63.25
2023-04-16T21:06:22.884Z,71.30
2023-04-16T21:09:08.725Z,59.97
2023-04-16T21:11:53.699Z,63.33
2023-04-16T21:14:38.708Z,61.97
2023-04-16T21:20:12.863Z,68.40
2023-04-16T21:22:57.996Z,63.97
2023-04-16T21:25:43.114Z,57.92
2023-04-16T21:28:27.945Z,68.50
2023-04-16T21:31:12.859Z,70.22
2023-04-16T21:33:57.761Z,65.00
2023-04-16T21:36:42.791Z,71.65
2023-04-16T21:39:30.205Z,66.20
2023-04-16T21:42:14.809Z,69.15
2023-04-16T21:44:59.380Z,67.10
2023-04-16T21:47:44.392Z,70.53
2023-04-16T21:50:29.299Z,71.18
2023-04-16T21:53:14.559Z,70.07
2023-04-16T21:55:59.856Z,67.05
2023-04-16T21:58:45.017Z,68.22
2023-04-16T22:01:29.911Z,63.30
2023-04-16T22:04:14.968Z,66.80
2023-04-16T22:07:02.605Z,66.30
2023-04-16T22:09:47.619Z,67.25
2023-04-16T22:12:32.469Z,64.70
2023-04-16T22:15:17.427Z,70.40
2023-04-16T22:18:02.336Z,70.32
2023-04-16T22:20:50.092Z,70.20
2023-04-16T22:23:34.979Z,73.43
2023-04-16T22:26:20.288Z,71.90
2023-04-16T22:29:05.257Z,74.22
2023-04-16T22:31:50.332Z,70.70
2023-04-16T22:34:35.258Z,65.38
2023-04-16T22:37:20.370Z,65.75
2023-04-16T22:42:52.381Z,66.43
2023-04-16T22:45:37.523Z,66.28
2023-04-16T22:48:22.384Z,67.95
2023-04-16T22:51:08.218Z,65.20
2023-04-16T22:53:53.183Z,63.15
2023-04-16T22:56:38.364Z,61.90
2023-04-16T22:59:23.671Z,65.65
2023-04-16T23:02:08.233Z,69.32
2023-04-16T23:04:53.276Z,62.70
2023-04-16T23:07:37.943Z,56.58
2023-04-16T23:10:22.758Z,66.43
2023-04-16T23:13:07.045Z,62.70
2023-04-16T23:15:52.057Z,59.85
2023-04-16T23:18:37.000Z,66.03
2023-04-16T23:21:22.375Z,61.92
2023-04-16T23:24:07.254Z,62.60
2023-04-16T23:26:52.127Z,69.57
2023-04-16T23:29:37.138Z,61.30
2023-04-16T23:32:22.147Z,66.53
2023-04-16T23:35:07.906Z,62.13
2023-04-16T23:37:52.728Z,59.05
2023-04-16T23:40:37.805Z,66.22
2023-04-16T23:43:22.964Z,66.40
2023-04-16T23:48:54.560Z,62.35
2023-04-16T23:51:39.511Z,69.40
2023-04-16T23:54:24.292Z,67.15
2023-04-16T23:57:09.153Z,61.35
2023-04-16T23:59:54.116Z,65.88
